createdAt,value
2018-10-11T00:02:09.647Z,12.08
2018-10-11T00:04:38.924Z,12.03
2018-10-11T00:07:08.464Z,12.08
2018-10-11T00:09:37.715Z,12.07
2018-10-11T00:12:07.310Z,12.06
2018-10-11T00:14:36.645Z,12.05
2018-10-11T00:17:05.915Z,11.94
2018-10-11T00:19:35.188Z,11.94
2018-10-11T00:22:04.426Z,11.88
2018-10-11T00:24:33.663Z,11.90
2018-10-11T00:27:02.899Z,11.88
2018-10-11T00:29:32.118Z,11.84
2018-10-11T00:32:01.347Z,11.80
2018-10-11T00:34:30.576Z,11.73
2018-10-11T00:36:59.821Z,11.73
2018-10-11T00:39:29.058Z,11.78
2018-10-11T00:41:58.283Z,11.78
2018-10-11T00:44:27.509Z,11.74
2018-10-11T00:46:56.739Z,11.72
2018-10-11T00:49:25.988Z,11.77
2018-10-11T00:51:55.204Z,11.76
2018-10-11T00:54:24.426Z,11.77
2018-10-11T00:56:53.667Z,11.77
2018-10-11T00:59:22.904Z,11.80
2018-10-11T01:01:52.140Z,11.77
2018-10-11T01:04:21.370Z,11.76
2018-10-11T01:06:50.612Z,11.74
2018-10-11T01:09:19.845Z,11.77
2018-10-11T01:11:49.084Z,11.80
2018-10-11T01:14:18.316Z,11.80
2018-10-11T01:16:47.546Z,11.85
2018-10-11T01:19:16.763Z,11.88
2018-10-11T01:21:46.003Z,11.85
2018-10-11T01:24:15.227Z,11.82
2018-10-11T01:26:44.450Z,11.85
2018-10-11T01:29:13.743Z,11.88
2018-10-11T01:31:42.979Z,11.90
2018-10-11T01:34:12.212Z,11.89
2018-10-11T01:36:41.433Z,11.96
2018-10-11T01:39:10.666Z,11.96
2018-10-11T01:41:39.896Z,11.96
2018-10-11T01:44:09.246Z,11.93
2018-10-11T01:46:38.467Z,11.90
2018-10-11T01:49:07.695Z,11.81
2018-10-11T01:51:36.914Z,11.80
2018-10-11T01:54:06.229Z,11.75
2018-10-11T01:56:35.481Z,11.76
2018-10-11T01:59:04.711Z,11.79
2018-10-11T02:01:33.935Z,11.77
2018-10-11T02:04:03.163Z,11.78
2018-10-11T02:06:32.389Z,11.75
2018-10-11T02:09:01.629Z,11.74
2018-10-11T02:11:30.854Z,11.73
2018-10-11T02:14:00.082Z,11.79
2018-10-11T02:16:29.306Z,11.75
2018-10-11T02:18:58.538Z,11.72
2018-10-11T02:21:28.159Z,11.77
2018-10-11T02:23:57.391Z,11.85
2018-10-11T02:26:26.628Z,11.82
2018-10-11T02:28:55.892Z,11.81
2018-10-11T02:31:25.415Z,11.78
2018-10-11T02:33:54.685Z,11.75
2018-10-11T02:36:23.947Z,11.73
2018-10-11T02:38:53.211Z,11.70
2018-10-11T02:41:22.464Z,11.68
2018-10-11T02:43:51.729Z,11.65
2018-10-11T02:46:20.983Z,11.69
2018-10-11T02:48:50.263Z,11.70
2018-10-11T02:51:19.527Z,11.75
2018-10-11T02:53:48.798Z,11.77
2018-10-11T02:56:20.079Z,11.83
2018-10-11T02:59:06.483Z,11.82
2018-10-11T03:01:35.739Z,11.90
2018-10-11T03:04:06.092Z,11.92
2018-10-11T03:06:37.407Z,11.92
2018-10-11T03:09:08.208Z,11.95
2018-10-11T03:11:37.962Z,11.91
2018-10-11T03:14:07.515Z,11.95
2018-10-11T03:16:36.744Z,11.91
2018-10-11T03:19:05.991Z,11.88
2018-10-11T03:21:35.231Z,11.84
2018-10-11T03:24:04.455Z,11.77
2018-10-11T03:26:33.683Z,11.71
2018-10-11T03:29:02.909Z,11.72
2018-10-11T03:31:32.149Z,11.64
2018-10-11T03:34:01.370Z,11.63
2018-10-11T03:36:30.751Z,11.57
2018-10-11T03:38:59.971Z,11.54
2018-10-11T03:41:29.195Z,11.55
2018-10-11T03:43:58.425Z,11.52
2018-10-11T03:46:27.749Z,11.52
2018-10-11T03:48:56.947Z,11.45
2018-10-11T03:51:26.193Z,11.42
2018-10-11T03:53:55.414Z,11.41
2018-10-11T03:56:24.649Z,11.45
2018-10-11T03:58:53.878Z,11.46
2018-10-11T04:01:23.122Z,11.42
2018-10-11T04:03:52.343Z,11.46
2018-10-11T04:06:21.571Z,11.46
2018-10-11T04:08:50.776Z,11.45
2018-10-11T04:11:19.993Z,11.41
2018-10-11T04:13:49.200Z,11.41
2018-10-11T04:16:18.424Z,11.36
2018-10-11T04:18:47.636Z,11.29
2018-10-11T04:21:16.865Z,11.28
2018-10-11T04:23:46.069Z,11.25
2018-10-11T04:26:15.296Z,11.18
2018-10-11T04:28:44.503Z,11.21
2018-10-11T04:31:13.723Z,11.18
2018-10-11T04:33:42.947Z,11.18
2018-10-11T04:36:12.230Z,11.06
2018-10-11T04:38:41.379Z,10.97
2018-10-11T04:41:10.604Z,10.91
2018-10-11T04:43:39.828Z,10.85
2018-10-11T04:46:09.163Z,10.81
2018-10-11T04:48:38.389Z,10.81
2018-10-11T04:51:07.603Z,10.77
2018-10-11T04:53:37.157Z,10.81
2018-10-11T04:56:06.311Z,10.90
2018-10-11T04:58:35.531Z,10.90
2018-10-11T05:01:04.740Z,10.85
2018-10-11T05:03:33.972Z,10.79
2018-10-11T05:06:03.184Z,10.82
2018-10-11T05:08:32.371Z,10.86
2018-10-11T05:11:01.556Z,10.90
2018-10-11T05:13:44.340Z,10.93
2018-10-11T05:16:14.103Z,10.87
2018-10-11T05:18:49.480Z,10.83
2018-10-11T05:21:18.718Z,10.82
2018-10-11T05:23:47.843Z,10.82
2018-10-11T05:26:17.166Z,10.76
2018-10-11T05:28:46.233Z,10.73
2018-10-11T05:31:16.138Z,10.68
2018-10-11T05:33:45.336Z,10.74
2018-10-11T05:36:15.127Z,10.78
2018-10-11T05:38:44.747Z,10.82
2018-10-11T05:41:13.948Z,10.80
2018-10-11T05:43:43.151Z,10.78
2018-10-11T05:46:34.242Z,10.84
2018-10-11T05:49:05.527Z,10.96
2018-10-11T05:51:35.531Z,10.95
2018-10-11T05:54:05.902Z,10.98
2018-10-11T05:56:37.523Z,11.00
2018-10-11T05:59:07.858Z,11.01
2018-10-11T06:01:37.240Z,10.96
2018-10-11T06:04:08.702Z,10.85
2018-10-11T06:06:37.841Z,10.77
2018-10-11T06:09:09.319Z,10.75
2018-10-11T06:11:38.556Z,10.78
2018-10-11T06:14:07.775Z,10.82
2018-10-11T06:16:36.995Z,10.90
2018-10-11T06:19:06.471Z,11.00
2018-10-11T06:21:35.702Z,11.06
2018-10-11T06:24:04.935Z,11.18
2018-10-11T06:26:34.192Z,11.24
2018-10-11T06:29:03.432Z,11.27
2018-10-11T06:31:32.648Z,11.26
2018-10-11T06:34:01.889Z,11.32
2018-10-11T06:36:31.423Z,11.39
2018-10-11T06:39:01.257Z,11.42
2018-10-11T06:41:30.478Z,11.45
2018-10-11T06:43:59.712Z,11.52
2018-10-11T06:46:28.935Z,11.51
2018-10-11T06:48:58.356Z,11.51
2018-10-11T06:51:27.600Z,11.55
2018-10-11T06:53:56.829Z,11.60
2018-10-11T06:56:26.044Z,11.62
2018-10-11T06:58:55.271Z,11.70
2018-10-11T07:01:24.483Z,11.79
2018-10-11T07:03:53.733Z,11.79
2018-10-11T07:06:22.956Z,11.85
2018-10-11T07:08:52.153Z,11.92
2018-10-11T07:11:21.339Z,12.07
2018-10-11T07:13:50.564Z,12.16
2018-10-11T07:16:19.698Z,12.17
2018-10-11T07:18:48.879Z,12.26
2018-10-11T07:21:18.133Z,12.22
2018-10-11T07:23:47.322Z,12.27
2018-10-11T07:26:16.516Z,12.20
2018-10-11T07:28:45.693Z,12.21
2018-10-11T07:31:14.883Z,12.22
2018-10-11T07:33:44.079Z,12.26
2018-10-11T07:36:13.294Z,12.33
2018-10-11T07:38:42.473Z,12.46
2018-10-11T07:41:11.661Z,12.46
2018-10-11T07:43:40.835Z,12.65
2018-10-11T07:46:10.039Z,12.87
2018-10-11T07:48:39.223Z,12.97
2018-10-11T07:51:08.415Z,13.08
2018-10-11T07:53:37.628Z,13.22
2018-10-11T07:56:06.807Z,13.43
2018-10-11T07:58:36.007Z,13.47
2018-10-11T08:01:05.217Z,13.59
2018-10-11T08:03:34.380Z,13.63
2018-10-11T08:06:03.551Z,13.68
2018-10-11T08:08:32.812Z,13.79
2018-10-11T08:11:02.072Z,13.71
2018-10-11T08:13:31.138Z,13.64
2018-10-11T08:16:00.308Z,13.93
2018-10-11T08:18:29.461Z,14.05
2018-10-11T08:20:58.656Z,14.24
2018-10-11T08:23:27.843Z,14.27
2018-10-11T08:25:57.348Z,14.41
2018-10-11T08:28:26.223Z,14.61
2018-10-11T08:30:55.409Z,14.91
2018-10-11T08:33:24.595Z,15.38
2018-10-11T08:35:53.785Z,15.36
2018-10-11T08:38:22.988Z,15.66
2018-10-11T08:40:52.147Z,15.71
2018-10-11T08:43:21.339Z,15.95
2018-10-11T08:45:50.520Z,15.94
2018-10-11T08:48:19.711Z,16.06
2018-10-11T08:50:48.952Z,15.93
2018-10-11T08:53:18.079Z,16.03
2018-10-11T08:55:47.306Z,16.24
2018-10-11T08:58:16.507Z,16.33
2018-10-11T09:00:45.744Z,16.37
2018-10-11T09:03:14.957Z,16.39
2018-10-11T09:05:44.128Z,16.51
2018-10-11T09:08:13.340Z,16.39
2018-10-11T09:10:42.561Z,16.39
2018-10-11T09:13:11.767Z,16.65
2018-10-11T09:15:40.985Z,16.79
2018-10-11T09:18:10.190Z,16.88
2018-10-11T09:20:39.419Z,17.08
2018-10-11T09:23:08.687Z,17.27
2018-10-11T09:25:37.870Z,17.22
2018-10-11T09:28:07.160Z,17.15
2018-10-11T09:30:36.364Z,17.26
2018-10-11T09:33:05.680Z,17.17
2018-10-11T09:35:34.887Z,17.42
2018-10-11T09:38:04.243Z,17.39
2018-10-11T09:40:33.463Z,17.59
2018-10-11T09:43:02.736Z,17.57
2018-10-11T09:45:31.886Z,17.57
2018-10-11T09:48:01.098Z,17.81
2018-10-11T09:50:30.310Z,18.01
2018-10-11T09:52:59.528Z,17.81
2018-10-11T09:55:28.743Z,17.85
2018-10-11T09:57:57.969Z,18.09
2018-10-11T10:00:33.933Z,18.03
2018-10-11T10:03:03.147Z,18.08
2018-10-11T10:05:32.366Z,18.20
2018-10-11T10:08:01.584Z,18.26
2018-10-11T10:10:30.809Z,18.08
2018-10-11T10:13:00.012Z,18.47
2018-10-11T10:15:29.290Z,18.36
2018-10-11T10:17:58.440Z,18.43
2018-10-11T10:20:27.655Z,18.41
2018-10-11T10:22:56.864Z,18.62
2018-10-11T10:25:26.075Z,18.65
2018-10-11T10:27:55.283Z,19.11
2018-10-11T10:30:29.686Z,18.92
2018-10-11T10:32:58.895Z,19.13
2018-10-11T10:35:28.119Z,19.18
2018-10-11T10:37:57.327Z,19.03
2018-10-11T10:40:26.568Z,19.39
2018-10-11T10:42:55.890Z,19.59
2018-10-11T10:45:25.087Z,20.68
2018-10-11T10:47:54.341Z,22.49
2018-10-11T10:50:23.538Z,22.83
2018-10-11T10:52:52.756Z,22.49
2018-10-11T10:55:22.018Z,23.22
2018-10-11T10:57:51.243Z,22.54
2018-10-11T11:00:20.452Z,22.03
2018-10-11T11:02:49.676Z,23.35
2018-10-11T11:05:18.900Z,23.24
2018-10-11T11:07:48.080Z,23.63
2018-10-11T11:10:17.238Z,23.99
2018-10-11T11:12:46.420Z,22.61
2018-10-11T11:15:15.588Z,23.06
2018-10-11T11:17:44.764Z,23.34
2018-10-11T11:20:13.923Z,23.81
2018-10-11T11:22:43.094Z,24.42
2018-10-11T11:25:12.278Z,23.15
2018-10-11T11:27:41.435Z,23.60
2018-10-11T11:30:10.599Z,22.92
2018-10-11T11:32:39.790Z,23.43
2018-10-11T11:35:08.959Z,24.69
2018-10-11T11:37:38.143Z,24.29
2018-10-11T11:40:07.689Z,24.40
2018-10-11T11:42:36.799Z,25.40
2018-10-11T11:45:05.963Z,24.68
2018-10-11T11:47:35.144Z,24.34
2018-10-11T11:50:04.323Z,24.25
2018-10-11T11:52:33.484Z,24.39
2018-10-11T11:55:02.660Z,24.23
2018-10-11T11:57:31.811Z,22.91
2018-10-11T12:00:00.984Z,23.70
2018-10-11T12:02:30.188Z,25.88
2018-10-11T12:04:59.317Z,26.71
2018-10-11T12:07:28.475Z,27.32
2018-10-11T12:09:57.652Z,26.16
2018-10-11T12:13:07.348Z,25.80
2018-10-11T12:15:37.262Z,24.30
2018-10-11T12:18:07.067Z,25.38
2018-10-11T12:20:37.395Z,24.60
2018-10-11T12:23:07.721Z,25.06
2018-10-11T12:25:43.663Z,25.93
2018-10-11T12:28:12.822Z,25.49
2018-10-11T12:30:41.997Z,25.45
2018-10-11T12:33:11.155Z,25.18
2018-10-11T12:35:40.323Z,25.61
2018-10-11T12:38:09.488Z,25.60
2018-10-11T12:40:38.664Z,25.33
2018-10-11T12:43:07.831Z,26.58
2018-10-11T12:45:37.702Z,26.65
2018-10-11T12:48:06.158Z,25.43
2018-10-11T12:50:35.327Z,24.63
2018-10-11T12:53:04.487Z,25.01
2018-10-11T12:55:33.659Z,25.03
2018-10-11T12:58:02.819Z,25.42
2018-10-11T13:00:31.996Z,25.66
2018-10-11T13:03:01.281Z,25.39
2018-10-11T13:05:30.339Z,25.59
2018-10-11T13:07:59.512Z,25.07
2018-10-11T13:10:28.752Z,25.80
2018-10-11T13:12:58.964Z,26.75
2018-10-11T13:15:27.089Z,26.00
2018-10-11T13:17:56.234Z,25.51
2018-10-11T13:20:25.401Z,25.51
2018-10-11T13:22:54.625Z,26.99
2018-10-11T13:25:23.728Z,27.53
2018-10-11T13:27:52.900Z,27.48
2018-10-11T13:30:22.067Z,27.25
2018-10-11T13:32:51.263Z,28.28
2018-10-11T13:35:20.478Z,27.45
2018-10-11T13:37:49.608Z,28.39
2018-10-11T13:40:18.779Z,27.39
2018-10-11T13:42:47.943Z,27.26
2018-10-11T13:45:17.112Z,26.96
2018-10-11T13:47:46.280Z,28.03
2018-10-11T13:50:15.440Z,28.07
2018-10-11T13:52:44.647Z,28.49
2018-10-11T13:55:15.431Z,28.68
2018-10-11T13:57:42.966Z,29.50
2018-10-11T14:00:12.123Z,29.48
2018-10-11T14:02:41.296Z,28.83
2018-10-11T14:05:10.464Z,28.20
2018-10-11T14:07:39.634Z,27.29
2018-10-11T14:10:08.804Z,28.30
2018-10-11T14:12:37.971Z,28.78
2018-10-11T14:15:08.263Z,29.77
2018-10-11T14:17:37.453Z,29.86
2018-10-11T14:20:06.599Z,29.84
2018-10-11T14:22:35.767Z,29.97
2018-10-11T14:25:04.994Z,29.55
2018-10-11T14:27:34.161Z,28.09
2018-10-11T14:30:03.331Z,26.03
2018-10-11T14:32:32.499Z,27.21
2018-10-11T14:35:01.679Z,27.70
2018-10-11T14:37:30.849Z,27.29
2018-10-11T14:40:00.025Z,27.39
2018-10-11T14:42:29.183Z,26.17
2018-10-11T14:44:58.355Z,26.07
2018-10-11T14:47:27.533Z,24.97
2018-10-11T14:49:56.695Z,25.49
2018-10-11T14:52:25.859Z,25.71
2018-10-11T14:54:55.046Z,26.94
2018-10-11T14:57:24.272Z,27.56
2018-10-11T14:59:53.391Z,27.10
2018-10-11T15:02:22.552Z,26.54
2018-10-11T15:04:51.724Z,27.78
2018-10-11T15:07:20.920Z,26.77
2018-10-11T15:09:50.129Z,26.93
2018-10-11T15:12:19.344Z,26.67
2018-10-11T15:14:48.547Z,27.84
2018-10-11T15:17:17.731Z,27.87
2018-10-11T15:19:46.999Z,27.39
2018-10-11T15:22:16.195Z,27.86
2018-10-11T15:24:45.444Z,27.71
2018-10-11T15:27:14.645Z,25.86
2018-10-11T15:29:43.859Z,25.09
2018-10-11T15:32:13.867Z,24.72
2018-10-11T15:34:43.090Z,23.66
2018-10-11T15:37:12.286Z,23.26
2018-10-11T15:39:41.555Z,22.84
2018-10-11T15:42:10.779Z,22.46
2018-10-11T15:44:40.008Z,22.28
2018-10-11T15:47:09.199Z,21.99
2018-10-11T15:49:38.400Z,21.96
2018-10-11T15:52:08.169Z,21.61
2018-10-11T15:54:37.334Z,21.42
2018-10-11T15:57:06.544Z,21.13
2018-10-11T15:59:35.748Z,20.93
2018-10-11T16:02:04.972Z,20.69
2018-10-11T16:04:34.176Z,20.63
2018-10-11T16:07:03.412Z,20.64
2018-10-11T16:09:32.696Z,20.60
2018-10-11T16:12:08.567Z,20.52
2018-10-11T16:14:38.019Z,20.34
2018-10-11T16:17:07.226Z,20.09
2018-10-11T16:19:36.435Z,19.98
2018-10-11T16:22:05.653Z,19.83
2018-10-11T16:24:34.884Z,19.72
2018-10-11T16:27:04.112Z,19.56
2018-10-11T16:29:33.321Z,19.50
2018-10-11T16:32:02.537Z,19.45
2018-10-11T16:34:31.748Z,19.35
2018-10-11T16:37:00.949Z,19.32
2018-10-11T16:39:30.173Z,19.28
2018-10-11T16:41:59.392Z,19.21
2018-10-11T16:44:28.652Z,19.10
2018-10-11T16:46:57.951Z,19.03
2018-10-11T16:49:27.154Z,18.97
2018-10-11T16:51:56.373Z,18.91
2018-10-11T16:54:25.631Z,18.84
2018-10-11T16:56:54.869Z,18.73
2018-10-11T16:59:24.079Z,18.64
2018-10-11T17:01:53.290Z,18.59
2018-10-11T17:04:22.528Z,18.41
2018-10-11T17:06:51.917Z,18.29
2018-10-11T17:09:21.108Z,18.33
2018-10-11T17:11:50.316Z,18.22
2018-10-11T17:14:19.504Z,18.18
2018-10-11T17:16:48.685Z,18.15
2018-10-11T17:19:17.875Z,18.05
2018-10-11T17:21:47.160Z,18.09
2018-10-11T17:24:16.254Z,18.10
2018-10-11T17:26:45.432Z,18.17
2018-10-11T17:29:14.599Z,18.14
2018-10-11T17:31:43.804Z,18.24
2018-10-11T17:34:12.979Z,17.84
2018-10-11T17:36:42.211Z,17.49
2018-10-11T17:39:12.197Z,17.42
2018-10-11T17:41:41.593Z,17.41
2018-10-11T17:44:11.640Z,17.36
2018-10-11T17:46:40.902Z,17.24
2018-10-11T17:49:10.092Z,17.16
2018-10-11T17:51:39.274Z,17.04
2018-10-11T17:54:08.481Z,16.91
2018-10-11T17:56:37.713Z,16.91
2018-10-11T17:59:06.968Z,16.88
2018-10-11T18:01:36.131Z,16.90
2018-10-11T18:04:05.357Z,16.86
2018-10-11T18:06:34.745Z,16.82
2018-10-11T18:09:04.857Z,16.89
2018-10-11T18:11:34.072Z,16.91
2018-10-11T18:14:03.307Z,17.02
2018-10-11T18:16:32.507Z,17.06
2018-10-11T18:19:01.720Z,17.15
2018-10-11T18:21:30.993Z,17.09
2018-10-11T18:24:00.147Z,17.04
2018-10-11T18:26:29.368Z,16.98
2018-10-11T18:28:58.619Z,16.92
2018-10-11T18:31:27.780Z,16.88
2018-10-11T18:33:56.982Z,16.84
2018-10-11T18:36:26.192Z,16.92
2018-10-11T18:38:55.416Z,17.00
2018-10-11T18:41:24.630Z,16.99
2018-10-11T18:43:53.830Z,16.95
2018-10-11T18:46:23.043Z,16.57
2018-10-11T18:48:52.250Z,16.50
2018-10-11T18:51:21.455Z,16.47
2018-10-11T18:53:50.703Z,16.45
2018-10-11T18:56:19.892Z,16.40
2018-10-11T18:58:49.087Z,16.33
2018-10-11T19:01:18.303Z,16.33
2018-10-11T19:03:47.498Z,16.30
2018-10-11T19:06:16.719Z,16.35
2018-10-11T19:08:45.923Z,16.41
2018-10-11T19:11:15.147Z,16.45
2018-10-11T19:13:44.355Z,16.56
2018-10-11T19:16:13.575Z,16.65
2018-10-11T19:18:42.836Z,16.68
2018-10-11T19:21:12.267Z,16.69
2018-10-11T19:23:41.510Z,16.66
2018-10-11T19:26:10.719Z,16.65
2018-10-11T19:28:39.923Z,16.59
2018-10-11T19:31:09.215Z,16.56
2018-10-11T19:33:38.415Z,16.44
2018-10-11T19:36:07.984Z,16.34
2018-10-11T19:38:37.204Z,16.36
2018-10-11T19:41:06.468Z,16.31
2018-10-11T19:43:35.685Z,16.29
2018-10-11T19:46:04.892Z,16.26
2018-10-11T19:48:34.202Z,16.19
2018-10-11T19:51:03.332Z,16.20
2018-10-11T19:53:32.531Z,16.07
2018-10-11T19:56:01.749Z,16.06
2018-10-11T19:58:30.952Z,16.06
2018-10-11T20:01:00.188Z,16.04
2018-10-11T20:03:29.395Z,16.03
2018-10-11T20:05:58.615Z,16.04
2018-10-11T20:08:27.787Z,16.06
2018-10-11T20:10:56.964Z,15.90
2018-10-11T20:13:26.144Z,15.88
2018-10-11T20:15:55.315Z,15.84
2018-10-11T20:18:24.508Z,15.98
2018-10-11T20:20:53.679Z,16.01
2018-10-11T20:23:22.865Z,16.01
2018-10-11T20:25:52.171Z,16.04
2018-10-11T20:28:21.346Z,16.07
2018-10-11T20:30:50.612Z,16.08
2018-10-11T20:33:19.815Z,16.04
2018-10-11T20:35:49.013Z,15.85
2018-10-11T20:38:18.247Z,15.81
2018-10-11T20:40:47.432Z,15.91
2018-10-11T20:43:16.809Z,15.92
2018-10-11T20:45:46.041Z,15.89
2018-10-11T20:48:15.268Z,15.85
2018-10-11T20:50:44.499Z,15.80
2018-10-11T20:53:13.759Z,15.56
2018-10-11T20:55:43.007Z,15.57
2018-10-11T20:58:12.255Z,15.62
2018-10-11T21:00:41.467Z,15.64
2018-10-11T21:03:10.692Z,15.61
2018-10-11T21:05:40.024Z,15.66
2018-10-11T21:08:09.199Z,15.73
2018-10-11T21:10:38.387Z,15.71
2018-10-11T21:13:07.625Z,15.70
2018-10-11T21:15:36.881Z,15.55
2018-10-11T21:18:06.175Z,15.61
2018-10-11T21:20:35.570Z,15.62
2018-10-11T21:23:04.735Z,15.65
2018-10-11T21:25:33.935Z,15.68
2018-10-11T21:28:03.186Z,15.66
2018-10-11T21:30:32.373Z,15.73
2018-10-11T21:33:01.583Z,15.60
2018-10-11T21:35:30.807Z,15.49
2018-10-11T21:37:59.996Z,15.50
2018-10-11T21:40:29.208Z,15.43
2018-10-11T21:42:58.420Z,15.47
2018-10-11T21:45:27.612Z,15.57
2018-10-11T21:47:56.794Z,15.69
2018-10-11T21:50:25.967Z,15.72
2018-10-11T21:52:55.142Z,15.58
2018-10-11T21:55:24.354Z,15.63
2018-10-11T21:57:53.553Z,15.47
2018-10-11T22:01:25.703Z,15.21
2018-10-11T22:03:55.219Z,15.07
2018-10-11T22:06:24.586Z,15.15
2018-10-11T22:08:53.792Z,14.98
2018-10-11T22:11:22.984Z,15.08
2018-10-11T22:13:52.192Z,15.12
2018-10-11T22:16:21.396Z,15.15
2018-10-11T22:18:50.568Z,15.15
2018-10-11T22:21:19.764Z,15.14
2018-10-11T22:23:48.952Z,15.08
2018-10-11T22:26:18.135Z,15.00
2018-10-11T22:28:47.339Z,14.94
2018-10-11T22:31:16.544Z,15.11
2018-10-11T22:33:45.728Z,15.18
2018-10-11T22:36:14.937Z,15.25
2018-10-11T22:38:44.116Z,15.32
2018-10-11T22:41:13.312Z,15.32
2018-10-11T22:43:43.017Z,15.21
2018-10-11T22:46:12.924Z,15.09
2018-10-11T22:48:42.645Z,14.81
2018-10-11T22:51:12.339Z,14.85
2018-10-11T22:53:42.160Z,14.83
2018-10-11T22:56:11.356Z,14.83
2018-10-11T22:58:40.664Z,14.73
2018-10-11T23:01:09.884Z,14.87
2018-10-11T23:03:39.108Z,14.98
2018-10-11T23:06:08.292Z,14.98
2018-10-11T23:08:37.490Z,15.00
2018-10-11T23:11:06.972Z,14.98
2018-10-11T23:13:36.173Z,14.95
2018-10-11T23:16:05.390Z,15.07
2018-10-11T23:18:34.599Z,14.98
2018-10-11T23:21:03.800Z,14.94
2018-10-11T23:23:32.995Z,14.74
2018-10-11T23:26:02.183Z,14.72
2018-10-11T23:28:31.378Z,14.76
2018-10-11T23:31:00.579Z,14.78
2018-10-11T23:33:29.767Z,14.75
2018-10-11T23:35:58.963Z,14.82
2018-10-11T23:38:28.164Z,14.84
2018-10-11T23:40:57.358Z,14.94
2018-10-11T23:43:26.556Z,14.99
2018-10-11T23:45:55.760Z,14.98
2018-10-11T23:48:24.980Z,14.88
2018-10-11T23:50:54.263Z,14.90
2018-10-11T23:53:23.495Z,14.81
2018-10-11T23:55:52.706Z,14.82
2018-10-11T23:58:21.939Z,14.62
